createdAt,value
2022-09-21T00:02:10.835Z,-70
2022-09-21T00:04:38.559Z,-70
2022-09-21T00:07:06.272Z,-70
2022-09-21T00:09:33.974Z,-70
2022-09-21T00:12:02.814Z,-70
2022-09-21T00:14:31.378Z,-70
2022-09-21T00:16:59.146Z,-70
2022-09-21T00:19:27.065Z,-70
2022-09-21T00:21:54.786Z,-70
2022-09-21T00:24:22.506Z,-70
2022-09-21T00:26:50.201Z,-70
2022-09-21T00:29:18.079Z,-70
2022-09-21T00:31:45.761Z,-70
2022-09-21T00:34:13.640Z,-70
2022-09-21T00:36:41.351Z,-70
2022-09-21T00:39:09.255Z,-70
2022-09-21T00:41:36.972Z,-70
2022-09-21T00:44:04.696Z,-70
2022-09-21T00:46:32.455Z,-70
2022-09-21T00:49:00.177Z,-70
2022-09-21T00:51:27.855Z,-70
2022-09-21T00:53:55.795Z,-70
2022-09-21T00:56:23.514Z,-70
2022-09-21T00:58:51.242Z,-70
2022-09-21T01:01:19.261Z,-70
2022-09-21T01:03:46.969Z,-70
2022-09-21T01:06:14.666Z,-70
2022-09-21T01:08:42.370Z,-70
2022-09-21T01:11:10.190Z,-70
2022-09-21T01:13:38.182Z,-70
2022-09-21T01:16:05.917Z,-70
2022-09-21T01:18:35.870Z,-69
2022-09-21T01:21:03.534Z,-70
2022-09-21T01:23:31.293Z,-70
2022-09-21T01:25:58.954Z,-70
2022-09-21T01:28:26.634Z,-70
2022-09-21T01:30:54.572Z,-70
2022-09-21T01:33:22.795Z,-70
2022-09-21T01:35:50.471Z,-70
2022-09-21T01:38:18.239Z,-70
2022-09-21T01:40:46.041Z,-70
2022-09-21T01:43:14.116Z,-70
2022-09-21T01:45:41.954Z,-70
2022-09-21T01:48:10.656Z,-70
2022-09-21T01:50:38.429Z,-70
2022-09-21T01:53:06.118Z,-70
2022-09-21T01:55:33.840Z,-70
2022-09-21T01:58:02.282Z,-70
2022-09-21T02:00:30.035Z,-70
2022-09-21T02:02:58.505Z,-70
2022-09-21T02:05:26.257Z,-70
2022-09-21T02:07:53.957Z,-70
2022-09-21T02:10:21.909Z,-70
2022-09-21T02:12:51.825Z,-70
2022-09-21T02:15:19.530Z,-70
2022-09-21T02:17:47.435Z,-70
2022-09-21T02:20:15.404Z,-69
2022-09-21T02:22:43.115Z,-69
2022-09-21T02:25:10.831Z,-70
2022-09-21T02:27:38.562Z,-70
2022-09-21T02:30:06.428Z,-70
2022-09-21T02:32:35.215Z,-70
2022-09-21T02:35:03.637Z,-70
2022-09-21T02:37:31.526Z,-70
2022-09-21T02:39:59.275Z,-70
2022-09-21T02:42:28.202Z,-70
2022-09-21T02:44:55.894Z,-70
2022-09-21T02:47:23.748Z,-70
2022-09-21T02:49:53.539Z,-70
2022-09-21T02:52:21.261Z,-70
2022-09-21T02:54:49.006Z,-69
2022-09-21T02:57:16.696Z,-70
2022-09-21T02:59:44.397Z,-70
2022-09-21T03:02:12.549Z,-69
2022-09-21T03:04:41.234Z,-69
2022-09-21T03:07:09.112Z,-70
2022-09-21T03:09:36.932Z,-70
2022-09-21T03:12:04.634Z,-70
2022-09-21T03:14:33.137Z,-70
2022-09-21T03:17:01.043Z,-70
2022-09-21T03:19:29.434Z,-70
2022-09-21T03:21:57.222Z,-70
2022-09-21T03:24:39.832Z,-70
2022-09-21T03:27:08.191Z,-69
2022-09-21T03:29:36.019Z,-69
2022-09-21T03:32:03.801Z,-70
2022-09-21T03:34:34.378Z,-69
2022-09-21T03:37:02.311Z,-69
2022-09-21T03:39:30.003Z,-69
2022-09-21T03:41:57.681Z,-70
2022-09-21T03:44:25.894Z,-69
2022-09-21T03:46:53.576Z,-69
2022-09-21T03:49:21.287Z,-70
2022-09-21T03:51:49.086Z,-70
2022-09-21T03:54:16.771Z,-69
2022-09-21T03:56:44.959Z,-70
2022-09-21T03:59:14.246Z,-69
2022-09-21T04:01:42.379Z,-69
2022-09-21T04:04:10.516Z,-69
2022-09-21T04:06:38.222Z,-69
2022-09-21T04:09:05.908Z,-69
2022-09-21T04:11:33.690Z,-69
2022-09-21T04:14:01.578Z,-70
2022-09-21T04:16:29.256Z,-70
2022-09-21T04:18:56.996Z,-69
2022-09-21T04:21:24.707Z,-69
2022-09-21T04:23:52.439Z,-69
2022-09-21T04:26:20.111Z,-70
2022-09-21T04:28:47.888Z,-70
2022-09-21T04:31:15.604Z,-70
2022-09-21T04:33:43.319Z,-69
2022-09-21T04:36:11.082Z,-70
2022-09-21T04:38:40.529Z,-71
2022-09-21T04:41:08.283Z,-70
2022-09-21T04:43:35.966Z,-71
2022-09-21T04:46:03.765Z,-71
2022-09-21T04:48:31.551Z,-71
2022-09-21T04:50:59.257Z,-71
2022-09-21T04:53:33.187Z,-71
2022-09-21T04:56:00.952Z,-71
2022-09-21T04:58:28.966Z,-71
2022-09-21T05:00:56.811Z,-71
2022-09-21T05:03:24.705Z,-71
2022-09-21T05:05:52.427Z,-71
2022-09-21T05:08:41.133Z,-71
2022-09-21T05:11:07.813Z,-71
2022-09-21T05:13:35.521Z,-70
2022-09-21T05:16:03.285Z,-70
2022-09-21T05:18:31.071Z,-71
2022-09-21T05:20:58.782Z,-71
2022-09-21T05:23:26.507Z,-70
2022-09-21T05:25:54.212Z,-70
2022-09-21T05:28:21.971Z,-70
2022-09-21T05:31:07.393Z,-73
2022-09-21T05:33:37.348Z,-73
2022-09-21T05:36:05.036Z,-73
2022-09-21T05:38:33.274Z,-74
2022-09-21T05:41:00.967Z,-73
2022-09-21T05:43:28.656Z,-73
2022-09-21T05:45:56.386Z,-73
2022-09-21T05:48:24.095Z,-73
2022-09-21T05:50:51.786Z,-73
2022-09-21T05:53:19.477Z,-73
2022-09-21T05:55:47.124Z,-73
2022-09-21T05:58:14.825Z,-74
2022-09-21T06:00:42.508Z,-73
2022-09-21T06:03:13.227Z,-73
2022-09-21T06:05:43.259Z,-73
2022-09-21T06:08:10.949Z,-74
2022-09-21T06:10:38.648Z,-73
2022-09-21T06:13:06.323Z,-73
2022-09-21T06:15:34.775Z,-73
2022-09-21T06:18:02.554Z,-73
2022-09-21T06:20:30.347Z,-73
2022-09-21T06:22:57.992Z,-73
2022-09-21T06:25:25.651Z,-74
2022-09-21T06:27:53.340Z,-73
2022-09-21T06:30:21.034Z,-73
2022-09-21T06:32:48.751Z,-73
2022-09-21T06:35:16.459Z,-73
2022-09-21T06:37:44.139Z,-73
2022-09-21T06:40:11.842Z,-74
2022-09-21T06:42:39.525Z,-73
2022-09-21T06:45:07.169Z,-73
2022-09-21T06:47:34.850Z,-73
2022-09-21T06:50:03.144Z,-73
2022-09-21T06:52:30.831Z,-73
2022-09-21T06:54:58.494Z,-73
2022-09-21T06:57:26.155Z,-73
2022-09-21T06:59:54.023Z,-73
2022-09-21T07:02:21.965Z,-73
2022-09-21T07:04:49.720Z,-73
2022-09-21T07:07:17.405Z,-73
2022-09-21T07:12:34.676Z,-73
2022-09-21T07:15:02.413Z,-73
2022-09-21T07:17:30.140Z,-73
2022-09-21T07:19:57.888Z,-73
2022-09-21T07:22:25.568Z,-74
2022-09-21T07:24:53.278Z,-73
2022-09-21T07:27:21.019Z,-73
2022-09-21T07:29:48.686Z,-73
2022-09-21T07:32:16.396Z,-73
2022-09-21T07:34:44.112Z,-73
2022-09-21T07:37:11.799Z,-74
2022-09-21T07:39:39.565Z,-73
2022-09-21T07:42:07.250Z,-73
2022-09-21T07:44:35.274Z,-73
2022-09-21T07:47:03.482Z,-73
2022-09-21T07:49:31.244Z,-73
2022-09-21T07:52:03.548Z,-73
2022-09-21T07:54:33.762Z,-73
2022-09-21T07:57:18.839Z,-73
2022-09-21T07:59:46.488Z,-73
2022-09-21T08:02:14.316Z,-73
2022-09-21T08:04:42.019Z,-73
2022-09-21T08:07:09.711Z,-73
2022-09-21T08:09:37.391Z,-73
2022-09-21T08:12:05.197Z,-73
2022-09-21T08:14:33.624Z,-73
2022-09-21T08:17:01.332Z,-73
2022-09-21T08:19:29.000Z,-73
2022-09-21T08:21:58.059Z,-73
2022-09-21T08:24:26.841Z,-73
2022-09-21T08:26:55.900Z,-73
2022-09-21T08:29:23.781Z,-73
2022-09-21T08:31:52.373Z,-73
2022-09-21T08:34:20.285Z,-73
2022-09-21T08:36:51.736Z,-73
2022-09-21T08:39:22.250Z,-73
2022-09-21T08:41:50.023Z,-73
2022-09-21T08:44:17.780Z,-74
2022-09-21T08:46:45.547Z,-73
2022-09-21T08:49:14.420Z,-73
2022-09-21T08:51:42.128Z,-73
2022-09-21T08:54:10.001Z,-74
2022-09-21T08:57:01.007Z,-73
2022-09-21T08:59:25.319Z,-73
2022-09-21T09:01:53.044Z,-73
2022-09-21T09:04:20.792Z,-73
2022-09-21T09:06:48.454Z,-73
2022-09-21T09:09:16.161Z,-73
2022-09-21T09:11:43.831Z,-73
2022-09-21T09:14:11.516Z,-73
2022-09-21T09:16:39.265Z,-73
2022-09-21T09:19:07.057Z,-73
2022-09-21T09:21:35.321Z,-72
2022-09-21T09:24:02.990Z,-73
2022-09-21T09:26:30.651Z,-73
2022-09-21T09:28:58.319Z,-73
2022-09-21T09:31:26.082Z,-73
2022-09-21T09:33:54.063Z,-73
2022-09-21T09:36:46.603Z,-73
2022-09-21T09:39:12.804Z,-73
2022-09-21T09:41:40.538Z,-73
2022-09-21T09:44:08.231Z,-73
2022-09-21T09:46:35.971Z,-73
2022-09-21T09:49:03.696Z,-73
2022-09-21T09:51:35.174Z,-73
2022-09-21T09:54:06.921Z,-73
2022-09-21T09:56:37.327Z,-73
2022-09-21T09:59:08.252Z,-73
2022-09-21T10:01:36.046Z,-72
2022-09-21T10:04:03.877Z,-73
2022-09-21T10:06:31.646Z,-74
2022-09-21T10:08:59.308Z,-72
2022-09-21T10:11:27.009Z,-73
2022-09-21T10:13:54.685Z,-73
2022-09-21T10:16:22.551Z,-71
2022-09-21T10:18:50.431Z,-72
2022-09-21T10:21:18.185Z,-75
2022-09-21T10:23:45.904Z,-73
2022-09-21T10:26:13.629Z,-73
2022-09-21T10:28:41.281Z,-73
2022-09-21T10:31:09.086Z,-72
2022-09-21T10:33:36.819Z,-72
2022-09-21T10:36:04.554Z,-73
2022-09-21T10:38:32.433Z,-74
2022-09-21T10:41:00.095Z,-74
2022-09-21T10:43:27.754Z,-73
2022-09-21T10:45:55.475Z,-73
2022-09-21T10:48:23.258Z,-74
2022-09-21T10:50:50.935Z,-73
2022-09-21T10:53:18.685Z,-73
2022-09-21T10:55:58.492Z,-73
2022-09-21T10:58:34.102Z,-73
2022-09-21T11:01:01.850Z,-72
2022-09-21T11:03:29.580Z,-74
2022-09-21T11:05:57.320Z,-74
2022-09-21T11:08:25.000Z,-73
2022-09-21T11:10:52.692Z,-73
2022-09-21T11:13:20.356Z,-73
2022-09-21T11:15:48.179Z,-74
2022-09-21T11:18:16.021Z,-74
2022-09-21T11:20:43.723Z,-73
2022-09-21T11:23:12.015Z,-73
2022-09-21T11:25:39.718Z,-74
2022-09-21T11:28:07.685Z,-73
2022-09-21T11:30:35.415Z,-70
2022-09-21T11:33:03.308Z,-70
2022-09-21T11:35:31.013Z,-70
2022-09-21T11:37:58.677Z,-70
2022-09-21T11:40:26.427Z,-69
2022-09-21T11:42:54.165Z,-70
2022-09-21T11:45:21.879Z,-70
2022-09-21T11:47:49.541Z,-70
2022-09-21T11:50:33.653Z,-69
2022-09-21T11:53:01.460Z,-69
2022-09-21T11:55:29.199Z,-70
2022-09-21T11:57:57.147Z,-69
2022-09-21T12:00:26.672Z,-70
2022-09-21T12:02:54.393Z,-70
2022-09-21T12:05:22.141Z,-70
2022-09-21T12:07:49.861Z,-70
2022-09-21T12:10:17.538Z,-70
2022-09-21T12:12:45.265Z,-69
2022-09-21T12:15:12.984Z,-69
2022-09-21T12:17:40.773Z,-70
2022-09-21T12:20:08.511Z,-70
2022-09-21T12:22:36.234Z,-70
2022-09-21T12:25:04.063Z,-69
2022-09-21T12:27:31.770Z,-70
2022-09-21T12:29:59.468Z,-70
2022-09-21T12:32:27.176Z,-70
2022-09-21T12:34:55.057Z,-69
2022-09-21T12:37:23.309Z,-70
2022-09-21T12:39:51.124Z,-69
2022-09-21T12:42:19.117Z,-70
2022-09-21T12:44:53.055Z,-70
2022-09-21T12:47:20.840Z,-70
2022-09-21T12:49:48.613Z,-70
2022-09-21T12:52:16.336Z,-70
2022-09-21T12:54:45.343Z,-69
2022-09-21T12:57:38.255Z,-69
2022-09-21T13:00:01.869Z,-70
2022-09-21T13:02:30.408Z,-69
2022-09-21T13:04:58.256Z,-70
2022-09-21T13:07:25.931Z,-70
2022-09-21T13:09:53.650Z,-71
2022-09-21T13:12:21.363Z,-71
2022-09-21T13:14:49.480Z,-70
2022-09-21T13:17:17.179Z,-70
2022-09-21T13:19:44.897Z,-71
2022-09-21T13:22:13.920Z,-71
2022-09-21T13:24:42.309Z,-70
2022-09-21T13:27:10.030Z,-70
2022-09-21T13:29:38.148Z,-70
2022-09-21T13:32:05.938Z,-70
2022-09-21T13:34:33.710Z,-70
2022-09-21T13:37:02.071Z,-70
2022-09-21T13:39:29.833Z,-70
2022-09-21T13:42:04.637Z,-70
2022-09-21T13:44:32.395Z,-70
2022-09-21T13:47:01.639Z,-70
2022-09-21T13:49:31.035Z,-70
2022-09-21T13:52:00.253Z,-70
2022-09-21T13:54:27.937Z,-71
2022-09-21T13:56:55.748Z,-70
2022-09-21T13:59:23.592Z,-70
2022-09-21T14:01:51.751Z,-71
2022-09-21T14:04:19.488Z,-70
2022-09-21T14:06:47.281Z,-71
2022-09-21T14:09:14.981Z,-71
2022-09-21T14:11:45.202Z,-71
2022-09-21T14:14:13.274Z,-71
2022-09-21T14:16:44.638Z,-71
2022-09-21T14:19:12.376Z,-71
2022-09-21T14:21:40.153Z,-71
2022-09-21T14:24:08.066Z,-71
2022-09-21T14:26:35.985Z,-71
2022-09-21T14:29:03.717Z,-71
2022-09-21T14:31:31.518Z,-71
2022-09-21T14:33:59.615Z,-71
2022-09-21T14:36:31.104Z,-71
2022-09-21T14:39:00.637Z,-71
2022-09-21T14:41:31.272Z,-71
2022-09-21T14:43:59.040Z,-71
2022-09-21T14:46:28.856Z,-71
2022-09-21T14:48:56.671Z,-71
2022-09-21T14:51:24.534Z,-70
2022-09-21T14:53:52.276Z,-70
2022-09-21T14:56:23.043Z,-70
2022-09-21T14:58:52.195Z,-71
2022-09-21T15:01:19.993Z,-71
2022-09-21T15:03:49.043Z,-71
2022-09-21T15:06:30.955Z,-71
2022-09-21T15:09:16.388Z,-70
2022-09-21T15:11:44.132Z,-71
2022-09-21T15:14:12.318Z,-71
2022-09-21T15:16:40.352Z,-71
2022-09-21T15:19:08.078Z,-71
2022-09-21T15:21:38.151Z,-70
2022-09-21T15:24:06.022Z,-71
2022-09-21T15:26:34.262Z,-70
2022-09-21T15:29:10.422Z,-70
2022-09-21T15:31:38.549Z,-71
2022-09-21T15:34:06.362Z,-71
2022-09-21T15:36:34.267Z,-71
2022-09-21T15:39:01.969Z,-71
2022-09-21T15:41:29.688Z,-70
2022-09-21T15:43:59.629Z,-70
2022-09-21T15:46:27.447Z,-70
2022-09-21T15:48:57.508Z,-70
2022-09-21T15:51:28.809Z,-70
2022-09-21T15:53:57.564Z,-70
2022-09-21T15:56:25.711Z,-70
2022-09-21T15:58:55.921Z,-70
2022-09-21T16:01:23.830Z,-69
2022-09-21T16:03:56.463Z,-70
2022-09-21T16:06:24.781Z,-70
2022-09-21T16:08:52.527Z,-71
2022-09-21T16:11:23.109Z,-68
2022-09-21T16:14:08.586Z,-68
2022-09-21T16:16:36.363Z,-71
2022-09-21T16:19:04.750Z,-69
2022-09-21T16:21:33.990Z,-69
2022-09-21T16:24:01.884Z,-69
2022-09-21T16:26:29.582Z,-69
2022-09-21T16:28:57.697Z,-69
2022-09-21T16:31:26.167Z,-69
2022-09-21T16:33:54.357Z,-72
2022-09-21T16:36:22.368Z,-69
2022-09-21T16:38:50.621Z,-69
2022-09-21T16:41:19.105Z,-70
2022-09-21T16:43:46.957Z,-69
2022-09-21T16:46:14.739Z,-69
2022-09-21T16:48:42.624Z,-69
2022-09-21T16:51:10.298Z,-70
2022-09-21T16:53:37.952Z,-70
2022-09-21T16:56:05.877Z,-70
2022-09-21T16:58:33.600Z,-69
2022-09-21T17:01:01.479Z,-69
2022-09-21T17:03:31.612Z,-70
2022-09-21T17:05:59.295Z,-70
2022-09-21T17:08:27.768Z,-69
2022-09-21T17:10:55.972Z,-69
2022-09-21T17:13:23.706Z,-70
2022-09-21T17:15:52.126Z,-70
2022-09-21T17:18:19.881Z,-69
2022-09-21T17:20:48.028Z,-70
2022-09-21T17:23:15.773Z,-70
2022-09-21T17:25:44.807Z,-70
2022-09-21T17:28:12.628Z,-70
2022-09-21T17:30:42.552Z,-70
2022-09-21T17:33:10.832Z,-71
2022-09-21T17:35:38.994Z,-72
2022-09-21T17:38:10.028Z,-72
2022-09-21T17:40:40.512Z,-73
2022-09-21T17:43:11.987Z,-76
2022-09-21T17:45:39.982Z,-72
2022-09-21T17:48:07.707Z,-75
2022-09-21T17:50:35.479Z,-73
2022-09-21T17:53:21.009Z,-73
2022-09-21T17:55:49.079Z,-73
2022-09-21T17:58:16.923Z,-73
2022-09-21T18:00:44.982Z,-75
2022-09-21T18:03:12.642Z,-73
2022-09-21T18:05:40.380Z,-73
2022-09-21T18:08:08.155Z,-71
2022-09-21T18:10:36.139Z,-72
2022-09-21T18:13:04.031Z,-71
2022-09-21T18:15:32.428Z,-72
2022-09-21T18:18:00.373Z,-72
2022-09-21T18:20:28.830Z,-72
2022-09-21T18:22:57.438Z,-71
2022-09-21T18:25:25.300Z,-72
2022-09-21T18:27:54.860Z,-74
2022-09-21T18:30:23.343Z,-75
2022-09-21T18:32:51.138Z,-71
2022-09-21T18:35:18.989Z,-71
2022-09-21T18:37:47.421Z,-72
2022-09-21T18:40:15.561Z,-72
2022-09-21T18:42:43.337Z,-72
2022-09-21T18:45:11.024Z,-72
2022-09-21T18:47:38.894Z,-72
2022-09-21T18:50:06.799Z,-72
2022-09-21T18:52:35.862Z,-72
2022-09-21T18:55:04.469Z,-71
2022-09-21T18:57:32.770Z,-75
2022-09-21T19:00:00.460Z,-73
2022-09-21T19:02:28.580Z,-72
2022-09-21T19:04:59.222Z,-74
2022-09-21T19:07:27.906Z,-74
2022-09-21T19:09:55.597Z,-72
2022-09-21T19:12:23.716Z,-73
2022-09-21T19:14:51.417Z,-72
2022-09-21T19:17:19.190Z,-73
2022-09-21T19:19:47.068Z,-76
2022-09-21T19:22:14.770Z,-72
2022-09-21T19:24:42.647Z,-72
2022-09-21T19:27:10.337Z,-72
2022-09-21T19:29:39.395Z,-72
2022-09-21T19:32:07.108Z,-72
2022-09-21T19:34:34.973Z,-72
2022-09-21T19:37:07.566Z,-73
2022-09-21T19:39:35.665Z,-73
2022-09-21T19:42:03.613Z,-72
2022-09-21T19:44:31.806Z,-73
2022-09-21T19:46:59.488Z,-73
2022-09-21T19:49:27.299Z,-73
2022-09-21T19:51:55.932Z,-73
2022-09-21T19:54:41.142Z,-73
2022-09-21T19:57:26.327Z,-73
2022-09-21T19:59:54.014Z,-76
2022-09-21T20:02:25.433Z,-73
2022-09-21T20:04:55.820Z,-73
2022-09-21T20:07:23.972Z,-73
2022-09-21T20:09:52.675Z,-74
2022-09-21T20:12:20.350Z,-76
2022-09-21T20:14:48.136Z,-73
2022-09-21T20:17:15.940Z,-73
2022-09-21T20:19:44.643Z,-73
2022-09-21T20:22:12.390Z,-73
2022-09-21T20:24:40.115Z,-73
2022-09-21T20:27:07.805Z,-73
2022-09-21T20:29:35.815Z,-74
2022-09-21T20:32:03.552Z,-73
2022-09-21T20:34:31.498Z,-75
2022-09-21T20:36:59.189Z,-76
2022-09-21T20:39:26.997Z,-73
2022-09-21T20:41:54.740Z,-73
2022-09-21T20:44:22.536Z,-73
2022-09-21T20:46:50.352Z,-73
2022-09-21T20:49:18.055Z,-73
2022-09-21T20:51:46.028Z,-75
2022-09-21T20:54:14.036Z,-75
2022-09-21T20:56:41.759Z,-74
2022-09-21T20:59:09.711Z,-72
2022-09-21T21:01:37.504Z,-72
2022-09-21T21:04:05.301Z,-72
2022-09-21T21:06:34.132Z,-72
2022-09-21T21:09:02.100Z,-72
2022-09-21T21:11:30.018Z,-71
2022-09-21T21:13:57.693Z,-71
2022-09-21T21:16:26.717Z,-73
2022-09-21T21:18:54.426Z,-73
2022-09-21T21:21:25.372Z,-71
2022-09-21T21:24:09.955Z,-72
2022-09-21T21:27:00.927Z,-72
2022-09-21T21:29:25.376Z,-72
2022-09-21T21:31:53.126Z,-73
2022-09-21T21:34:20.846Z,-71
2022-09-21T21:36:48.791Z,-71
2022-09-21T21:39:16.545Z,-71
2022-09-21T21:41:44.398Z,-72
2022-09-21T21:44:12.383Z,-71
2022-09-21T21:46:40.066Z,-71
2022-09-21T21:49:08.021Z,-71
2022-09-21T21:51:36.116Z,-72
2022-09-21T21:54:03.912Z,-72
2022-09-21T21:56:31.606Z,-74
2022-09-21T21:58:59.343Z,-71
2022-09-21T22:01:27.311Z,-71
2022-09-21T22:03:55.127Z,-72
2022-09-21T22:06:22.868Z,-71
2022-09-21T22:08:50.772Z,-72
2022-09-21T22:11:18.657Z,-72
2022-09-21T22:13:46.655Z,-74
2022-09-21T22:16:14.535Z,-75
2022-09-21T22:18:42.330Z,-74
2022-09-21T22:21:10.199Z,-71
2022-09-21T22:23:37.899Z,-71
2022-09-21T22:26:05.760Z,-71
2022-09-21T22:28:34.584Z,-71
2022-09-21T22:31:02.469Z,-71
2022-09-21T22:33:33.159Z,-71
2022-09-21T22:36:01.864Z,-72
2022-09-21T22:38:31.643Z,-70
2022-09-21T22:40:59.359Z,-71
2022-09-21T22:43:27.091Z,-73
2022-09-21T22:45:54.824Z,-71
2022-09-21T22:48:22.613Z,-71
2022-09-21T22:50:50.452Z,-71
2022-09-21T22:53:18.147Z,-71
2022-09-21T22:55:45.969Z,-71
2022-09-21T22:58:13.703Z,-74
2022-09-21T23:00:42.185Z,-71
2022-09-21T23:03:12.027Z,-71
2022-09-21T23:05:39.746Z,-74
2022-09-21T23:08:07.586Z,-70
2022-09-21T23:10:35.274Z,-70
2022-09-21T23:13:03.184Z,-70
2022-09-21T23:15:30.870Z,-71
2022-09-21T23:17:58.550Z,-71
2022-09-21T23:20:26.266Z,-73
2022-09-21T23:22:53.962Z,-70
2022-09-21T23:25:22.188Z,-70
2022-09-21T23:27:49.883Z,-71
2022-09-21T23:30:19.216Z,-71
2022-09-21T23:32:46.911Z,-70
2022-09-21T23:35:14.683Z,-73
2022-09-21T23:37:42.421Z,-70
2022-09-21T23:40:10.216Z,-71
2022-09-21T23:42:37.931Z,-71
2022-09-21T23:45:05.842Z,-71
2022-09-21T23:47:33.536Z,-71
2022-09-21T23:50:01.356Z,-72
2022-09-21T23:52:29.442Z,-73
2022-09-21T23:54:57.138Z,-74
2022-09-21T23:57:25.100Z,-71
2022-09-21T23:59:52.852Z,-72
